Weather observations for the past three days for
Beaver County Airport
Metric (Imperial)
Date Time (edt) Wind (kph) Vis. (km) Weather Sky Cond. Temperature (ºC) Relative Humidity Wind Chill (°C) Heat Index (°C) Pressure Precipitation (cm)
Air Dwpt 6 hour altimeter (cm) sea level (mb) 1 hr 3 hr 6 hr
Max. Min.
06 02:35 SW 13 16.09 Light Drizzle BKN038 BKN044 OVC050 15.1 13.5 90% 75.49 0.0
06 02:15 SW 13 16.09 Rain SCT010 SCT021 OVC055 15.2 13.8 91% 75.51 0.0
06 01:55 S 9 11.27 Rain SCT003 BKN013 OVC036 15.5 14 91% 75.54 0.0
06 01:35 S 11 8.05 Light Rain SCT003 BKN008 OVC031 15.5 14 91% 75.57 0.0
06 01:15 S 7 8.05 Rain BKN008 BKN011 OVC020 15.5 14 91% 75.59 0.0
06 00:55 SW 6 11.27 Light Rain BKN006 BKN013 OVC055 15.6 14 90% 75.62 0.0
06 00:35 SW 7 11.27 Rain SCT007 BKN011 OVC060 15.7 14 90% 75.64 0.0
06 00:15 W 7 16.09 Drizzle SCT009 BKN021 OVC075 15.8 13.9 89% 75.62 0.0
05 23:55 W 7 16.09 Rain BKN011 BKN050 OVC065 15.8 13.7 87% 75.62 0.0
05 23:35 W 7 16.09 Overcast OVC011 16 13.8 87% 75.64 0.0
05 23:15 Calm 16.09 Light Drizzle BKN013 BKN055 OVC075 15.9 13.8 87% 75.62 0.0
05 22:55 Calm 16.09 Light Rain SCT012 BKN055 OVC075 16 13.6 86% 75.62 0.0
05 22:35 Calm 16.09 Drizzle SCT012 BKN055 OVC065 16.1 13.5 85% 75.64 0.0
05 22:15 Calm 16.09 Light Rain SCT016 SCT030 OVC065 16.1 13.3 84% 75.64 0.0
05 21:55 N 6 16.09 Overcast SCT018 SCT026 OVC065 16.2 13.3 83% 75.64 0.0
05 21:35 N 6 16.09 Overcast SCT015 SCT050 OVC065 16.6 13.3 81% 75.62 0.0
05 21:15 NW 15 G 31 16.09 Overcast SCT019 BKN060 OVC075 18.3 12.6 70% 75.62 0.0
05 20:55 SW 13 16.09 Overcast SCT060 BKN080 OVC095 21.1 9.5 48% 75.57 0.0
05 20:35 SW 17 16.09 Overcast SCT060 OVC095 21.1 9.6 48% 75.57 0.0
05 20:15 SW 15 16.09 Mostly Cloudy SCT060 BKN095 21.2 9.8 48% 75.57 0.0
05 19:55 SW 11 16.09 Mostly Cloudy BKN060 21.5 9.7 47% 75.57 0.0
05 19:35 SW 11 16.09 Partly Cloudy SCT060 SCT070 21.6 9.9 47% 75.57 0.0
05 19:15 SW 13 16.09 Partly Cloudy SCT055 SCT070 21.7 9.9 47% 75.57 0.0
05 18:55 SW 13 16.09 Mostly Cloudy SCT055 BKN070 BKN090 21.9 10 47% 75.57 0.0
05 18:47 SW 9 16.09 Mostly Cloudy SCT055 BKN070 BKN090 22 10 47% 75.59 0.0
05 18:35 SW 13 16.09 Mostly Cloudy SCT060 BKN090 22 9.7 46% 75.59 0.0
05 18:15 W 17 G 33 16.09 Mostly Cloudy BKN060 BKN075 22.1 9.5 45% 75.59 0.0
05 17:55 W 22 G 33 16.09 Overcast BKN050 OVC070 22.3 9.2 43% 75.59 0.0
05 17:47 W 24 G 50 16.09 Overcast BKN050 OVC060 22 9 44% 75.59 0.0
05 17:35 SW 30 G 39 16.09 Overcast OVC050 22.5 9.9 45% 75.59 0.0
05 17:15 SW 28 G 39 16.09 Overcast BKN050 OVC060 22.6 10.5 46% 75.59 0.0
05 16:55 SW 20 G 37 16.09 Mostly Cloudy BKN050 BKN060 BKN085 22.7 10.5 46% 75.59 0.0
05 16:47 SW 19 G 37 16.09 Mostly Cloudy BKN055 BKN085 23 10 44% 75.59 0.0
05 16:35 W 19 G 26 16.09 Overcast BKN055 OVC075 22.5 10.3 46% 75.59 0.0
05 16:15 SW 11 16.09 Overcast BKN055 OVC075 22.4 10.5 47% 75.59 0.0
05 15:55 W 6 16.09 Overcast SCT055 BKN075 OVC085 22.1 10.4 48% 75.62 0.0
05 15:47 W 9 16.09 Overcast SCT055 BKN075 OVC090 22 10 47% 75.62 0.0
05 15:35 W 11 G 26 16.09 Overcast BKN055 OVC075 21.6 10 48% 75.64 0.0
05 15:15 W 15 G 30 16.09 Overcast SCT050 BKN070 OVC080 22 9.6 45% 75.64 0.0
05 14:55 W 13 16.09 Overcast OVC055 21.7 9.4 46% 75.67 0.0
05 14:47 W 22 G 44 16.09 Overcast SCT055 OVC070 22 9 44% 75.67 0.0
05 14:35 W 31 G 39 16.09 Overcast OVC055 22.5 9.1 43% 75.67 0.0
05 14:15 W 22 G 41 16.09 Partly Cloudy SCT050 SCT110 23.1 8.8 40% 75.64 0.0
05 13:55 SW 22 G 43 16.09 Partly Cloudy SCT050 SCT110 22.9 9.3 42% 75.64 0.0
05 13:47 SW 24 G 39 16.09 Partly Cloudy SCT050 SCT055 23 10 44% 75.64 0.0
05 13:35 SW 31 G 43 16.09 Mostly Cloudy BKN050 BKN070 22.4 9.4 44% 75.64 0.0
05 13:15 W 30 G 43 16.09 Overcast BKN050 OVC070 23.1 9 41% 75.62 0.0
05 12:55 W 20 G 37 16.09 Mostly Cloudy BKN050 23.1 9.2 41% 75.59 0.0
05 12:47 W 24 G 37 16.09 Mostly Cloudy BKN050 23 9 41% 75.59 0.0
05 12:35 SW 26 G 44 16.09 Mostly Cloudy BKN050 23.5 9.2 40% 75.59 0.0
05 12:15 W 20 G 39 16.09 Mostly Cloudy BKN048 BKN055 22.9 9.5 43% 75.62 0.0
05 11:55 W 17 G 30 16.09 Overcast BKN048 OVC055 22.4 10.2 46% 75.64 0.0
05 11:35 W 28 G 37 16.09 Overcast SCT045 OVC050 22.4 10 45% 75.64 0.0
05 11:15 SW 20 G 35 16.09 Overcast BKN046 OVC050 20.7 9.8 50% 75.64 0.0
05 10:55 W 26 G 41 16.09 Mostly Cloudy BKN047 20.9 9.6 49% 75.62 0.0
05 10:35 SW 28 G 43 16.09 Partly Cloudy SCT048 21.8 10.1 47% 75.59 0.0
05 10:15 SW 17 G 39 16.09 Partly Cloudy SCT090 21.1 10.1 50% 75.62 0.0
05 09:55 SW 19 G 44 16.09 Mostly Cloudy SCT075 BKN090 20.5 9.9 51% 75.64 0.0
05 09:35 SW 19 G 41 16.09 Mostly Cloudy BKN075 BKN090 BKN120 20.4 9.9 51% 75.62 0.0
05 09:15 SW 26 G 33 16.09 Mostly Cloudy SCT075 BKN120 20.3 9.9 51% 75.62 0.0
05 08:55 SW 22 G 30 16.09 Partly Cloudy SCT120 20.6 10 51% 75.62 0.0
05 08:47 W 19 G 35 16.09 Fair CLR 21 10 50% 75.62 0.0
05 08:35 SW 19 G 28 16.09 Fair CLR 19.9 10 53% 75.62 0.0
05 08:15 SW 22 G 30 16.09 Fair CLR 19.2 10 55% 75.62 0.0
05 07:55 SW 20 G 31 16.09 Fair CLR 18.6 10 58% 75.62 0.0
05 07:47 SW 17 G 31 16.09 Fair CLR 19 10 56% 75.62 0.0
05 07:35 SW 17 G 30 16.09 Fair CLR 18.6 10 58% 75.62 0.0
05 07:15 SW 22 G 31 16.09 Fair CLR 18.3 10 59% 75.59 0.0
05 06:55 SW 20 G 33 16.09 Fair CLR 18 10 60% 75.59 0.0
05 06:35 SW 19 G 30 16.09 Fair CLR 18 10 60% 75.57 0.0
05 06:15 SW 20 G 28 16.09 Partly Cloudy SCT120 18 9.8 59% 75.54 0.0
05 05:55 SW 20 G 31 16.09 Partly Cloudy SCT110 18.4 9.9 58% 75.54 0.0
05 05:35 SW 20 G 37 16.09 Mostly Cloudy SCT090 BKN120 18.6 9.8 57% 75.51 0.0
05 05:15 SW 22 G 33 16.09 Overcast OVC090 18.7 10 57% 75.49 0.0
05 04:55 SW 19 G 35 16.09 Overcast BKN090 OVC110 18.5 10.2 59% 75.51 0.0
05 04:35 SW 19 G 30 16.09 Mostly Cloudy BKN110 18 10.2 61% 75.51 0.0
05 04:15 SW 20 G 33 16.09 Fair CLR 18 10.2 61% 75.49 0.0
05 03:55 SW 20 G 30 16.09 Fair CLR 18 10.2 61% 75.49 0.0
05 03:35 SW 19 G 35 16.09 Fair CLR 18.4 10 58% 75.46 0.0
05 03:15 SW 20 G 33 16.09 Fair CLR 18.8 9.5 55% 75.46 0.0
05 02:55 SW 22 G 33 16.09 Partly Cloudy SCT065 SCT080 19 9.3 54% 75.46 0.0
05 02:35 SW 19 G 28 16.09 Mostly Cloudy SCT065 SCT090 BKN110 19 9.5 54% 75.46 0.0
05 02:15 SW 20 G 33 16.09 Thunderstorm in Vicinity SCT070 OVC110 19 9.7 55% 75.49 0.0
05 01:55 SW 22 G 31 16.09 Overcast SCT070 SCT080 OVC100 19.3 9.6 54% 75.51 0.0
05 01:35 SW 19 G 37 16.09 Thunderstorm SCT075 BKN100 BKN120 19.2 9.5 54% 75.51 0.0
05 01:15 SW 17 16.09 Mostly Cloudy SCT100 BKN120 19 9.4 54% 75.54 0.0
05 00:55 SW 15 G 26 16.09 Mostly Cloudy BKN120 19 9.4 54% 75.54 0.0
05 00:35 SW 19 G 28 16.09 Mostly Cloudy BKN120 19 9.4 54% 75.54 0.0
05 00:15 SW 20 G 26 16.09 Mostly Cloudy BKN110 19 9.3 54% 75.54 0.0
04 23:55 SW 19 G 28 16.09 Partly Cloudy SCT100 18.7 9.3 55% 75.54 0.0
04 23:35 SW 17 G 26 16.09 Fair CLR 18.6 9.3 55% 75.54 0.0
04 23:15 SW 13 16.09 Fair CLR 18.7 9.2 54% 75.54 0.0
04 22:55 SW 17 16.09 Fair CLR 18.9 9.2 54% 75.57 0.0
04 22:35 SW 15 16.09 Partly Cloudy SCT100 19.2 9.2 53% 75.57 0.0
04 22:15 SW 13 16.09 Mostly Cloudy BKN110 19.5 9.1 51% 75.57 0.0
04 21:55 SW 17 16.09 Partly Cloudy SCT110 19.6 9 51% 75.57 0.0
04 21:35 SW 17 G 28 16.09 Mostly Cloudy BKN100 20 9 49% 75.57 0.0
04 21:15 SW 17 G 28 16.09 Mostly Cloudy BKN100 BKN120 20 9 49% 75.54 0.0
04 20:55 SW 15 16.09 Mostly Cloudy SCT090 BKN120 20.1 9.1 49% 75.51 0.0
04 20:35 SW 19 G 26 16.09 Mostly Cloudy SCT090 BKN110 20.5 9 48% 75.49 0.0
04 20:15 SW 13 16.09 Partly Cloudy SCT110 20.5 9.2 48% 75.49 0.0
04 19:55 SW 15 16.09 Fair CLR 20.9 9.5 48% 75.46 0.0
04 19:35 SW 11 16.09 Fair CLR 21.5 9.6 47% 75.46 0.0
04 19:15 SW 20 G 31 16.09 Partly Cloudy SCT110 22.2 9.1 43% 75.49 0.0
04 18:55 SW 17 16.09 Mostly Cloudy SCT095 BKN110 21.8 8.9 44% 75.51 0.0
04 18:47 SW 13 16.09 Partly Cloudy SCT070 SCT080 22 9 44% 75.51 0.0
04 18:35 SW 20 G 31 16.09 Overcast SCT065 SCT070 OVC095 22.6 8.6 41% 75.54 0.0
04 18:15 SW 20 G 35 16.09 Overcast BKN055 OVC065 22 8.4 42% 75.54 0.0
04 17:55 SW 19 G 35 16.09 Overcast BKN055 OVC085 22.1 8.2 41% 75.51 0.0
04 17:47 W 20 G 26 16.09 Mostly Cloudy BKN055 BKN065 22 8 41% 75.54 0.0
04 17:35 SW 22 G 35 16.09 Mostly Cloudy SCT065 BKN085 22.6 8 39% 75.51 0.0
04 17:15 W 20 G 43 16.09 Partly Cloudy SCT055 SCT065 23.6 7.7 36% 75.51 0.0
04 16:55 W 11 G 30 16.09 Partly Cloudy SCT055 SCT065 23.5 8 37% 75.51 0.0
04 16:47 W 20 G 26 16.09 Partly Cloudy SCT055 SCT065 23 8 38% 75.51 0.0
04 16:35 SW 20 G 41 16.09 Fair CLR 23.4 7.3 36% 75.51 0.0
04 16:15 SW 19 G 37 16.09 Partly Cloudy SCT055 23.6 8.1 37% 75.54 0.0
04 15:55 SW 20 G 39 16.09 Partly Cloudy SCT055 23 7.6 37% 75.54 0.0
04 15:35 SW 26 G 33 16.09 Partly Cloudy SCT055 SCT070 22.8 7.7 38% 75.57 0.0
04 15:15 SW 26 G 37 16.09 Partly Cloudy SCT055 SCT065 23 7.7 38% 75.57 0.0
04 14:55 SW 19 G 33 16.09 Partly Cloudy SCT055 23 7.5 37% 75.59 0.0
04 14:47 W 20 G 26 16.09 Partly Cloudy SCT055 23 7 36% 75.59 0.0
04 14:35 SW 19 G 37 16.09 Partly Cloudy SCT055 22.4 7.1 37% 75.59 0.0
04 14:15 SW 26 G 35 16.09 Partly Cloudy SCT055 SCT065 22.2 6.8 37% 75.62 0.0
04 13:55 SW 26 G 37 16.09 Partly Cloudy SCT070 22.4 6.9 37% 75.62 0.0
04 13:35 W 20 G 31 16.09 Partly Cloudy SCT070 21.5 6.6 38% 75.64 0.0
04 13:15 SW 28 G 35 16.09 Fair CLR 21.1 6.3 38% 75.64 0.0
04 12:47 S 19 G 30 16.09 Fair CLR 21 6 38% 75.67 0.0
04 12:35 SW 20 G 28 16.09 Fair CLR 20.3 6.3 40% 75.69 0.0
04 12:15 SW 17 16.09 Fair CLR 20 6 40% 75.72 0.0
04 11:55 SW 15 G 28 16.09 Fair CLR 19 5.4 41% 75.74 0.0
04 11:47 SW 19 G 31 16.09 Fair CLR 19 6 43% 75.74 0.0
04 11:35 SW 22 16.09 Fair CLR 18.8 5.4 42% 75.77 0.0
04 11:15 W 20 G 30 16.09 Fair CLR 18.3 5 42% 75.77 0.0
04 10:55 W 15 16.09 Fair CLR 17.5 4.7 43% 75.77 0.0
04 10:47 SW 24 16.09 Fair CLR 18 5 43% 75.77 0.0
04 10:35 SW 17 16.09 Fair CLR 17.2 4.3 43% 75.77 0.0
04 10:15 SW 22 G 30 16.09 Fair CLR 16.9 4.3 43% 75.77 0.0
04 09:55 SW 19 G 26 16.09 Fair CLR 16.5 3.9 43% 75.77 0.0
04 09:47 SW 15 G 30 16.09 Fair CLR 16 3 42% 75.79 0.0
04 09:35 W 17 G 28 16.09 Fair CLR 15.8 3.6 44% 75.79 0.0
04 09:15 SW 22 G 31 16.09 Fair CLR 15 3.2 45% 75.82 0.0
04 08:55 SW 15 G 31 16.09 Fair CLR 14.5 2.8 46% 75.82 0.0
04 08:47 SW 19 G 30 16.09 Fair CLR 14 3 48% 75.82 0.0
04 08:35 SW 20 G 28 16.09 Fair CLR 14 2.7 47% 75.82 0.0
04 08:15 SW 15 G 28 16.09 Fair CLR 13.5 2.6 48% 75.79 0.0
04 07:55 SW 19 G 28 16.09 Fair CLR 12.7 2.2 49% 75.79 0.0
04 07:47 SW 19 G 28 16.09 Fair CLR 12 2 51% 75.77 0.0
04 07:35 SW 20 G 31 16.09 Partly Cloudy SCT060 12.1 2.1 51% 75.77 0.0
04 07:15 SW 13 G 28 16.09 Mostly Cloudy BKN060 11.5 1.7 51% 75.79 0.0
04 06:55 SW 17 16.09 Partly Cloudy SCT060 11.1 1.5 52% 75.77 0.0
04 06:47 SW 15 16.09 Mostly Cloudy BKN060 11 1 50% 75.77 0.0
04 06:35 SW 15 16.09 Mostly Cloudy BKN060 11.1 1.2 51% 75.77 0.0
04 06:15 SW 13 16.09 Mostly Cloudy BKN060 11 1 50% 75.79 0.0
04 05:55 SW 15 16.09 Partly Cloudy SCT060 11 0.7 49% 75.79 0.0
04 05:35 SW 13 16.09 Partly Cloudy SCT110 10.8 0.6 50% 75.82 0.0
04 05:15 SW 11 16.09 Mostly Cloudy SCT060 BKN110 11 0.5 49% 75.82 0.0
04 04:55 SW 9 16.09 Overcast SCT070 OVC110 11.5 0.5 47% 75.84 0.0
04 04:35 SW 15 16.09 Overcast OVC060 11.4 0.6 48% 75.84 0.0
04 04:15 SW 15 16.09 Overcast OVC060 11 0.9 50% 75.87 0.0
04 03:55 SW 13 16.09 Overcast BKN060 OVC110 10.7 1 51% 75.87 0.0
04 03:35 SW 11 16.09 Overcast OVC110 10.5 0.9 52% 75.9 0.0
04 03:15 SW 9 16.09 Overcast SCT070 OVC110 10.2 1.1 54% 75.9 0.0
04 02:55 SW 9 16.09 Overcast OVC070 10 1.2 55% 9 75.92 0.0
04 02:35 SW 11 16.09 Overcast SCT070 OVC110 10 1 54% 9 75.92 0.0
04 02:15 SW 9 16.09 Overcast OVC110 10.2 1 53% 75.95 0.0
04 01:55 SW 9 16.09 Overcast SCT070 OVC100 10.2 0.8 52% 75.95 0.0
04 01:35 SW 7 16.09 Overcast BKN070 BKN080 OVC100 10.3 0.7 52% 75.97 0.0
04 01:15 SW 6 16.09 Overcast OVC060 10.5 0.6 51% 75.97 0.0
04 00:55 SW 6 16.09 Overcast OVC060 10.6 0.1 49% 76 0.0
04 00:35 SW 6 16.09 Mostly Cloudy BKN070 10.6 0 48% 75.97 0.0
04 00:15 SW 7 16.09 Fair CLR 10.5 0 49% 76 0.0
03 23:55 W 11 16.09 Fair CLR 11 -0.1 47% 76.02 0.0
03 23:35 SW 13 16.09 Fair CLR 10.7 -0.5 46% 76.02 0.0
03 23:15 SW 11 16.09 Fair CLR 10.5 -0.4 47% 76 0.0
03 22:55 SW 9 16.09 Fair CLR 11.1 -0.6 45% 76 0.0
03 22:35 SW 7 16.09 Fair CLR 11.2 -0.6 44% 76 0.0
03 22:15 SW 9 16.09 Fair CLR 11.1 -0.5 45% 76.02 0.0
03 21:55 SW 7 16.09 Fair CLR 11.7 -0.8 42% 76.02 0.0
03 21:35 SW 9 16.09 Fair CLR 12 -0.8 41% 76.02 0.0
03 21:15 SW 7 16.09 Fair CLR 12.5 -0.8 40% 76 0.0
03 20:55 SW 7 16.09 Fair CLR 12.9 -0.9 39% 76 0.0
03 20:35 W 11 16.09 Partly Cloudy SCT070 13.2 -0.9 38% 76 0.0
03 20:15 W 9 16.09 Mostly Cloudy BKN070 13.9 -1.1 36% 76 0.0
03 19:55 W 13 16.09 Overcast OVC070 14.2 -1.2 35% 76 0.0
03 19:35 W 11 16.09 Mostly Cloudy BKN070 14.2 -1.5 34% 76 0.0
03 19:15 W 15 G 30 16.09 Overcast OVC070 14.7 -1.7 33% 76 0.0
03 18:55 SW 17 G 31 16.09 Overcast OVC070 15 -2 31% 76 0.0
03 18:35 SW 22 G 31 16.09 Overcast OVC070 15 -2.5 30% 76.02 0.0
03 18:15 W 13 G 31 16.09 Mostly Cloudy BKN070 15.3 -2.6 29% 76.02 0.0
03 17:55 W 19 G 28 16.09 Mostly Cloudy BKN070 16.6 -2.2 28% 76.02 0.0
03 17:35 W 26 G 35 16.09 Mostly Cloudy BKN070 17 -2.7 26% 76.02 0.0
03 17:15 SW 17 G 31 16.09 Mostly Cloudy BKN070 16.6 -2.2 28% 76 0.0
03 16:55 W 17 G 31 16.09 Mostly Cloudy BKN075 BKN085 16.5 -2.6 27% 76.02 0.0
03 16:35 W 17 G 30 16.09 Mostly Cloudy BKN075 16.6 -3.1 26% 76.02 0.0
03 16:15 W 24 G 37 16.09 Mostly Cloudy BKN075 16.4 -2.4 28% 76.05 0.0
03 15:55 W 20 G 33 16.09 Mostly Cloudy BKN075 15.8 -3 28% 76.07 0.0
03 15:35 W 19 16.09 Mostly Cloudy BKN065 16.7 -1.9 28% 76.1 0.0
03 15:15 W 17 G 35 16.09 Partly Cloudy SCT065 15.8 -3.8 26% 76.1 0.0
03 14:55 W 22 G 37 16.09 Partly Cloudy SCT065 16.5 -2.5 27% 76.15 0.0
03 14:35 W 15 G 31 16.09 Partly Cloudy SCT065 15 -3.2 29% 76.15 0.0
03 14:15 NW 20 G 33 16.09 Partly Cloudy SCT065 16 -1.9 29% 76.15 0.0
03 13:55 SW 17 G 35 16.09 Partly Cloudy SCT065 SCT080 15.4 -1.8 31% 76.17 0.0
03 13:35 W 26 G 35 16.09 Partly Cloudy SCT065 SCT080 15.4 -1.6 31% 76.2 0.0
03 13:15 NW 13 G 33 16.09 Partly Cloudy SCT065 14.7 -1.8 32% 76.2 0.0
03 12:35 W 17 G 35 16.09 Partly Cloudy SCT060 SCT075 14.6 -2 32% 76.23 0.0
03 12:15 W 17 G 30 16.09 Partly Cloudy SCT060 SCT075 13.5 -3 32% 76.25 0.0
03 11:55 W 15 16.09 Mostly Cloudy BKN065 13.1 -3.9 31% 76.28 0.0
03 11:35 W 20 G 30 16.09 Mostly Cloudy BKN065 12.2 -4 32% 76.28 0.0
03 11:15 SW 13 G 28 16.09 Partly Cloudy SCT065 12.2 -3.1 35% 76.28 0.0
03 10:55 W 11 16.09 Fair CLR 11.4 -2 40% 76.28 0.0
03 10:35 W 13 16.09 Fair CLR 11 -2.1 40% 76.28 0.0
03 10:15 W 22 G 30 16.09 Fair CLR 10.4 -2 42% 76.3 0.0
03 09:55 W 15 16.09 Fair CLR 10.1 -0.2 49% 76.3 0.0
03 09:35 W 15 16.09 Fair CLR 8.9 -0.8 51% 7 76.33 0.0
03 09:15 W 17 G 26 16.09 Fair CLR 8.1 -0.2 56% 6 76.33 0.0
03 08:55 W 19 G 26 16.09 Fair CLR 7.3 -0.2 59% 4 76.33 0.0
03 08:35 W 13 16.09 Fair CLR 6.7 -0.2 62% 4 76.3 0.0
03 08:15 W 11 16.09 Fair CLR 6 -0.2 65% 4 76.28 0.0
03 07:55 W 7 16.09 Fair CLR 5.3 0 69% 4 76.28 0.0
03 07:35 W 11 16.09 Fair CLR 4.5 0 73% 2 76.28 0.0
03 07:15 W 7 16.09 Fair CLR 3.5 0 78% 2 76.25 0.0
03 06:55 W 6 16.09 Fair CLR 2.7 0 83% 76.25 0.0
03 06:35 W 6 16.09 Fair CLR 2.6 -0.1 83% 76.23 0.0
03 06:15 W 7 16.09 Fair CLR 2.6 -0.1 83% 1 76.2 0.0
03 05:55 W 9 16.09 Fair CLR 2.7 0 83% 0 76.2 0.0
03 05:35 W 7 16.09 Fair CLR 2.6 -0.1 83% 1 76.2 0.0
03 05:15 W 9 16.09 Fair CLR 2.6 -0.3 81% 0 76.2 0.0
03 04:55 W 6 16.09 Fair CLR 2.6 -0.5 80% 76.2 0.0
03 04:35 W 6 16.09 Fair CLR 2.6 -0.6 80% 76.2 0.0
03 04:15 W 6 16.09 Fair CLR 2.7 -0.6 79% 76.2 0.0
03 03:55 W 7 16.09 Fair CLR 2.8 -0.5 79% 1 76.2 0.0
03 03:35 W 6 16.09 Fair CLR 3 -0.5 78% 76.2 0.0
03 03:15 W 6 16.09 Partly Cloudy SCT070 3.2 -0.6 76% 76.2 0.0
03 02:55 W 6 16.09 Overcast OVC070 3.6 -0.7 74% 76.2 0.0
Date Time (edt) Wind (kph) Vis. (km) Weather Sky Cond. Air Dwpt Max. Min. Relative Humidity Wind Chill (°C) Heat Index (°C) altimeter (cm) sea level (mb) 1 hr 3 hr 6 hr
6 hour
Temperature (ºC) Pressure Precipitation (cm)